sensor_id;sensor_type;location;lat;lon;timestamp;P1;durP1;ratioP1;P2;durP2;ratioP2
8825;SDS011;4449;50.872;4.714;2023-02-25T00:01:54;7.80;;;2.80;;
8825;SDS011;4449;50.872;4.714;2023-02-25T00:04:22;17.40;;;2.77;;
8825;SDS011;4449;50.872;4.714;2023-02-25T00:06:50;10.50;;;3.17;;
8825;SDS011;4449;50.872;4.714;2023-02-25T00:09:19;11.10;;;2.93;;
8825;SDS011;4449;50.872;4.714;2023-02-25T00:11:47;6.93;;;2.73;;
8825;SDS011;4449;50.872;4.714;2023-02-25T00:14:15;9.67;;;2.83;;
8825;SDS011;4449;50.872;4.714;2023-02-25T00:16:43;18.43;;;3.30;;
8825;SDS011;4449;50.872;4.714;2023-02-25T00:19:11;12.77;;;3.10;;
8825;SDS011;4449;50.872;4.714;2023-02-25T00:21:38;9.43;;;2.73;;
8825;SDS011;4449;50.872;4.714;2023-02-25T00:24:06;10.73;;;4.63;;
8825;SDS011;4449;50.872;4.714;2023-02-25T00:26:36;7.90;;;3.37;;
8825;SDS011;4449;50.872;4.714;2023-02-25T00:29:03;9.77;;;4.03;;
8825;SDS011;4449;50.872;4.714;2023-02-25T00:31:31;9.13;;;2.60;;
8825;SDS011;4449;50.872;4.714;2023-02-25T00:33:59;10.27;;;3.00;;
8825;SDS011;4449;50.872;4.714;2023-02-25T00:36:27;8.77;;;3.23;;
8825;SDS011;4449;50.872;4.714;2023-02-25T00:38:55;11.50;;;3.17;;
8825;SDS011;4449;50.872;4.714;2023-02-25T00:41:24;9.40;;;3.27;;
8825;SDS011;4449;50.872;4.714;2023-02-25T00:43:54;10.87;;;2.70;;
8825;SDS011;4449;50.872;4.714;2023-02-25T00:46:22;9.20;;;3.07;;
8825;SDS011;4449;50.872;4.714;2023-02-25T00:48:50;8.50;;;2.53;;
8825;SDS011;4449;50.872;4.714;2023-02-25T00:51:20;8.37;;;2.80;;
8825;SDS011;4449;50.872;4.714;2023-02-25T00:53:47;9.90;;;2.93;;
8825;SDS011;4449;50.872;4.714;2023-02-25T00:56:15;9.23;;;2.80;;
8825;SDS011;4449;50.872;4.714;2023-02-25T00:58:45;8.87;;;2.73;;
8825;SDS011;4449;50.872;4.714;2023-02-25T01:01:18;9.33;;;2.43;;
8825;SDS011;4449;50.872;4.714;2023-02-25T01:03:46;10.20;;;2.37;;
8825;SDS011;4449;50.872;4.714;2023-02-25T01:06:15;10.87;;;2.87;;
8825;SDS011;4449;50.872;4.714;2023-02-25T01:08:43;10.27;;;3.42;;
8825;SDS011;4449;50.872;4.714;2023-02-25T01:11:12;12.10;;;4.32;;
8825;SDS011;4449;50.872;4.714;2023-02-25T01:13:40;11.00;;;3.23;;
8825;SDS011;4449;50.872;4.714;2023-02-25T01:16:12;13.48;;;3.42;;
8825;SDS011;4449;50.872;4.714;2023-02-25T01:18:42;9.57;;;3.00;;
8825;SDS011;4449;50.872;4.714;2023-02-25T01:21:13;13.75;;;3.67;;
8825;SDS011;4449;50.872;4.714;2023-02-25T01:23:43;9.18;;;2.90;;
8825;SDS011;4449;50.872;4.714;2023-02-25T01:26:11;10.02;;;3.40;;
8825;SDS011;4449;50.872;4.714;2023-02-25T01:28:39;10.35;;;3.40;;
8825;SDS011;4449;50.872;4.714;2023-02-25T01:31:07;10.02;;;2.97;;
8825;SDS011;4449;50.872;4.714;2023-02-25T01:33:44;11.88;;;2.92;;
8825;SDS011;4449;50.872;4.714;2023-02-25T01:36:11;10.70;;;2.95;;
8825;SDS011;4449;50.872;4.714;2023-02-25T01:38:39;11.00;;;3.10;;
8825;SDS011;4449;50.872;4.714;2023-02-25T01:41:07;10.55;;;3.05;;
8825;SDS011;4449;50.872;4.714;2023-02-25T01:43:35;10.95;;;2.40;;
8825;SDS011;4449;50.872;4.714;2023-02-25T01:46:03;8.85;;;2.72;;
8825;SDS011;4449;50.872;4.714;2023-02-25T01:48:31;10.40;;;3.72;;
8825;SDS011;4449;50.872;4.714;2023-02-25T01:51:02;7.60;;;2.92;;
8825;SDS011;4449;50.872;4.714;2023-02-25T01:53:33;10.07;;;2.90;;
8825;SDS011;4449;50.872;4.714;2023-02-25T01:56:01;8.02;;;2.75;;
8825;SDS011;4449;50.872;4.714;2023-02-25T01:58:30;6.80;;;2.78;;
8825;SDS011;4449;50.872;4.714;2023-02-25T02:00:58;7.88;;;2.72;;
8825;SDS011;4449;50.872;4.714;2023-02-25T02:03:29;7.25;;;2.75;;
8825;SDS011;4449;50.872;4.714;2023-02-25T02:05:59;7.40;;;2.80;;
8825;SDS011;4449;50.872;4.714;2023-02-25T02:08:29;10.63;;;3.17;;
8825;SDS011;4449;50.872;4.714;2023-02-25T02:10:58;7.05;;;2.78;;
8825;SDS011;4449;50.872;4.714;2023-02-25T02:13:27;5.35;;;2.63;;
8825;SDS011;4449;50.872;4.714;2023-02-25T02:15:58;7.22;;;3.00;;
8825;SDS011;4449;50.872;4.714;2023-02-25T02:18:29;8.85;;;2.80;;
8825;SDS011;4449;50.872;4.714;2023-02-25T02:21:01;6.03;;;2.40;;
8825;SDS011;4449;50.872;4.714;2023-02-25T02:23:50;6.78;;;2.75;;
8825;SDS011;4449;50.872;4.714;2023-02-25T02:26:45;9.00;;;2.58;;
8825;SDS011;4449;50.872;4.714;2023-02-25T02:32:01;7.05;;;2.40;;
8825;SDS011;4449;50.872;4.714;2023-02-25T02:34:34;5.00;;;2.50;;
8825;SDS011;4449;50.872;4.714;2023-02-25T02:37:07;10.45;;;2.60;;
8825;SDS011;4449;50.872;4.714;2023-02-25T02:39:38;11.07;;;2.90;;
8825;SDS011;4449;50.872;4.714;2023-02-25T02:42:17;5.88;;;2.33;;
8825;SDS011;4449;50.872;4.714;2023-02-25T02:44:54;4.28;;;2.10;;
8825;SDS011;4449;50.872;4.714;2023-02-25T02:47:25;8.18;;;2.25;;
8825;SDS011;4449;50.872;4.714;2023-02-25T02:49:55;7.88;;;2.58;;
8825;SDS011;4449;50.872;4.714;2023-02-25T02:52:26;6.10;;;2.50;;
8825;SDS011;4449;50.872;4.714;2023-02-25T02:54:56;7.53;;;2.45;;
8825;SDS011;4449;50.872;4.714;2023-02-25T02:57:27;5.20;;;2.70;;
8825;SDS011;4449;50.872;4.714;2023-02-25T02:59:57;6.88;;;2.72;;
8825;SDS011;4449;50.872;4.714;2023-02-25T03:02:27;6.05;;;2.58;;
8825;SDS011;4449;50.872;4.714;2023-02-25T03:04:58;7.60;;;2.83;;
8825;SDS011;4449;50.872;4.714;2023-02-25T03:07:27;6.78;;;2.72;;
8825;SDS011;4449;50.872;4.714;2023-02-25T03:09:57;5.07;;;2.70;;
8825;SDS011;4449;50.872;4.714;2023-02-25T03:12:25;7.53;;;2.90;;
8825;SDS011;4449;50.872;4.714;2023-02-25T03:14:52;10.18;;;2.40;;
8825;SDS011;4449;50.872;4.714;2023-02-25T03:17:21;7.78;;;3.03;;
8825;SDS011;4449;50.872;4.714;2023-02-25T03:19:52;7.40;;;2.78;;
8825;SDS011;4449;50.872;4.714;2023-02-25T03:22:22;7.38;;;2.55;;
8825;SDS011;4449;50.872;4.714;2023-02-25T03:24:52;6.53;;;2.90;;
8825;SDS011;4449;50.872;4.714;2023-02-25T03:27:21;4.53;;;2.10;;
8825;SDS011;4449;50.872;4.714;2023-02-25T03:29:49;7.72;;;2.10;;
8825;SDS011;4449;50.872;4.714;2023-02-25T03:32:17;5.85;;;2.13;;
8825;SDS011;4449;50.872;4.714;2023-02-25T03:34:46;7.32;;;2.63;;
8825;SDS011;4449;50.872;4.714;2023-02-25T03:37:17;8.27;;;2.63;;
8825;SDS011;4449;50.872;4.714;2023-02-25T03:39:49;7.13;;;2.45;;
8825;SDS011;4449;50.872;4.714;2023-02-25T03:42:20;10.02;;;2.60;;
8825;SDS011;4449;50.872;4.714;2023-02-25T03:44:51;10.02;;;2.78;;
8825;SDS011;4449;50.872;4.714;2023-02-25T03:47:19;7.57;;;2.72;;
8825;SDS011;4449;50.872;4.714;2023-02-25T03:49:49;6.03;;;2.50;;
8825;SDS011;4449;50.872;4.714;2023-02-25T03:52:21;5.55;;;2.10;;
8825;SDS011;4449;50.872;4.714;2023-02-25T03:54:49;6.35;;;2.42;;
8825;SDS011;4449;50.872;4.714;2023-02-25T03:57:17;7.40;;;2.42;;
8825;SDS011;4449;50.872;4.714;2023-02-25T03:59:45;6.40;;;2.45;;
8825;SDS011;4449;50.872;4.714;2023-02-25T04:02:13;11.73;;;2.95;;
8825;SDS011;4449;50.872;4.714;2023-02-25T04:04:42;10.18;;;2.38;;
8825;SDS011;4449;50.872;4.714;2023-02-25T04:07:10;8.63;;;2.90;;
8825;SDS011;4449;50.872;4.714;2023-02-25T04:09:39;8.80;;;2.58;;
8825;SDS011;4449;50.872;4.714;2023-02-25T04:12:06;8.38;;;2.88;;
8825;SDS011;4449;50.872;4.714;2023-02-25T04:14:34;8.63;;;2.90;;
8825;SDS011;4449;50.872;4.714;2023-02-25T04:17:01;7.70;;;2.40;;
8825;SDS011;4449;50.872;4.714;2023-02-25T04:19:30;7.97;;;2.42;;
8825;SDS011;4449;50.872;4.714;2023-02-25T04:21:58;7.68;;;2.75;;
8825;SDS011;4449;50.872;4.714;2023-02-25T04:24:26;6.13;;;2.50;;
8825;SDS011;4449;50.872;4.714;2023-02-25T04:26:55;8.80;;;2.50;;
8825;SDS011;4449;50.872;4.714;2023-02-25T04:29:25;11.15;;;2.72;;
8825;SDS011;4449;50.872;4.714;2023-02-25T04:31:53;7.38;;;2.55;;
8825;SDS011;4449;50.872;4.714;2023-02-25T04:34:20;6.55;;;2.38;;
8825;SDS011;4449;50.872;4.714;2023-02-25T04:36:48;8.25;;;2.30;;
8825;SDS011;4449;50.872;4.714;2023-02-25T04:39:16;9.65;;;2.72;;
8825;SDS011;4449;50.872;4.714;2023-02-25T04:41:44;8.77;;;2.70;;
8825;SDS011;4449;50.872;4.714;2023-02-25T04:44:13;9.80;;;2.30;;
8825;SDS011;4449;50.872;4.714;2023-02-25T04:46:41;9.40;;;2.40;;
8825;SDS011;4449;50.872;4.714;2023-02-25T04:49:09;8.18;;;2.80;;
8825;SDS011;4449;50.872;4.714;2023-02-25T04:51:37;6.85;;;2.67;;
8825;SDS011;4449;50.872;4.714;2023-02-25T04:54:05;7.60;;;2.20;;
8825;SDS011;4449;50.872;4.714;2023-02-25T04:56:33;9.07;;;2.63;;
8825;SDS011;4449;50.872;4.714;2023-02-25T04:59:01;7.60;;;2.38;;
8825;SDS011;4449;50.872;4.714;2023-02-25T05:01:30;8.73;;;3.10;;
8825;SDS011;4449;50.872;4.714;2023-02-25T05:03:58;6.60;;;2.33;;
8825;SDS011;4449;50.872;4.714;2023-02-25T05:06:26;9.70;;;2.53;;
8825;SDS011;4449;50.872;4.714;2023-02-25T05:08:54;9.18;;;2.30;;
8825;SDS011;4449;50.872;4.714;2023-02-25T05:11:22;7.20;;;2.70;;
8825;SDS011;4449;50.872;4.714;2023-02-25T05:13:50;11.30;;;2.97;;
8825;SDS011;4449;50.872;4.714;2023-02-25T05:16:19;9.20;;;2.72;;
8825;SDS011;4449;50.872;4.714;2023-02-25T05:18:49;7.20;;;2.38;;
8825;SDS011;4449;50.872;4.714;2023-02-25T05:21:17;8.73;;;2.33;;
8825;SDS011;4449;50.872;4.714;2023-02-25T05:23:46;7.97;;;2.33;;
8825;SDS011;4449;50.872;4.714;2023-02-25T05:26:14;10.32;;;2.75;;
8825;SDS011;4449;50.872;4.714;2023-02-25T05:28:42;8.98;;;2.85;;
8825;SDS011;4449;50.872;4.714;2023-02-25T05:31:10;9.90;;;2.42;;
8825;SDS011;4449;50.872;4.714;2023-02-25T05:33:38;5.15;;;2.05;;
8825;SDS011;4449;50.872;4.714;2023-02-25T05:36:08;8.80;;;2.47;;
8825;SDS011;4449;50.872;4.714;2023-02-25T05:38:37;11.77;;;2.42;;
8825;SDS011;4449;50.872;4.714;2023-02-25T05:41:05;7.05;;;2.42;;
8825;SDS011;4449;50.872;4.714;2023-02-25T05:43:33;9.02;;;2.63;;
8825;SDS011;4449;50.872;4.714;2023-02-25T05:46:01;14.02;;;2.88;;
8825;SDS011;4449;50.872;4.714;2023-02-25T05:48:29;10.30;;;3.17;;
8825;SDS011;4449;50.872;4.714;2023-02-25T05:51:00;4.55;;;2.38;;
8825;SDS011;4449;50.872;4.714;2023-02-25T05:53:33;6.85;;;2.90;;
8825;SDS011;4449;50.872;4.714;2023-02-25T05:56:03;11.77;;;2.63;;
8825;SDS011;4449;50.872;4.714;2023-02-25T05:58:31;9.73;;;2.70;;
8825;SDS011;4449;50.872;4.714;2023-02-25T06:00:59;6.22;;;2.28;;
8825;SDS011;4449;50.872;4.714;2023-02-25T06:03:28;7.82;;;2.42;;
8825;SDS011;4449;50.872;4.714;2023-02-25T06:05:55;8.77;;;2.30;;
8825;SDS011;4449;50.872;4.714;2023-02-25T06:08:23;8.55;;;2.40;;
8825;SDS011;4449;50.872;4.714;2023-02-25T06:10:52;8.95;;;2.42;;
8825;SDS011;4449;50.872;4.714;2023-02-25T06:13:20;6.82;;;2.58;;
8825;SDS011;4449;50.872;4.714;2023-02-25T06:15:48;7.45;;;2.42;;
8825;SDS011;4449;50.872;4.714;2023-02-25T06:18:15;7.72;;;2.28;;
8825;SDS011;4449;50.872;4.714;2023-02-25T06:20:44;5.65;;;2.00;;
8825;SDS011;4449;50.872;4.714;2023-02-25T06:23:12;7.03;;;2.55;;
8825;SDS011;4449;50.872;4.714;2023-02-25T06:25:40;8.63;;;3.08;;
8825;SDS011;4449;50.872;4.714;2023-02-25T06:28:09;4.97;;;2.25;;
8825;SDS011;4449;50.872;4.714;2023-02-25T06:30:39;4.85;;;1.85;;
8825;SDS011;4449;50.872;4.714;2023-02-25T06:33:07;5.13;;;2.22;;
8825;SDS011;4449;50.872;4.714;2023-02-25T06:35:35;4.45;;;1.65;;
8825;SDS011;4449;50.872;4.714;2023-02-25T06:38:03;5.30;;;1.75;;
8825;SDS011;4449;50.872;4.714;2023-02-25T06:40:31;5.78;;;2.10;;
8825;SDS011;4449;50.872;4.714;2023-02-25T06:42:59;6.00;;;2.30;;
8825;SDS011;4449;50.872;4.714;2023-02-25T06:45:28;6.77;;;2.00;;
8825;SDS011;4449;50.872;4.714;2023-02-25T06:47:55;5.95;;;1.88;;
8825;SDS011;4449;50.872;4.714;2023-02-25T06:50:23;5.45;;;2.20;;
8825;SDS011;4449;50.872;4.714;2023-02-25T06:52:51;5.95;;;2.30;;
8825;SDS011;4449;50.872;4.714;2023-02-25T06:55:19;8.52;;;2.45;;
8825;SDS011;4449;50.872;4.714;2023-02-25T06:57:46;8.47;;;2.53;;
8825;SDS011;4449;50.872;4.714;2023-02-25T07:00:14;10.55;;;2.40;;
8825;SDS011;4449;50.872;4.714;2023-02-25T07:02:44;8.40;;;2.83;;
8825;SDS011;4449;50.872;4.714;2023-02-25T07:05:12;9.63;;;3.05;;
8825;SDS011;4449;50.872;4.714;2023-02-25T07:07:39;7.25;;;3.08;;
8825;SDS011;4449;50.872;4.714;2023-02-25T07:10:09;13.18;;;2.80;;
8825;SDS011;4449;50.872;4.714;2023-02-25T07:12:37;12.55;;;3.28;;
8825;SDS011;4449;50.872;4.714;2023-02-25T07:15:05;9.73;;;2.78;;
8825;SDS011;4449;50.872;4.714;2023-02-25T07:17:33;9.10;;;2.80;;
8825;SDS011;4449;50.872;4.714;2023-02-25T07:20:03;10.38;;;3.28;;
8825;SDS011;4449;50.872;4.714;2023-02-25T07:22:31;6.22;;;2.47;;
8825;SDS011;4449;50.872;4.714;2023-02-25T07:24:59;10.45;;;2.85;;
8825;SDS011;4449;50.872;4.714;2023-02-25T07:27:27;9.45;;;2.95;;
8825;SDS011;4449;50.872;4.714;2023-02-25T07:29:54;8.07;;;2.33;;
8825;SDS011;4449;50.872;4.714;2023-02-25T07:32:22;8.65;;;2.88;;
8825;SDS011;4449;50.872;4.714;2023-02-25T07:34:50;7.55;;;2.88;;
8825;SDS011;4449;50.872;4.714;2023-02-25T07:37:19;8.52;;;2.83;;
8825;SDS011;4449;50.872;4.714;2023-02-25T07:39:47;13.10;;;3.00;;
8825;SDS011;4449;50.872;4.714;2023-02-25T07:42:15;11.65;;;3.20;;
8825;SDS011;4449;50.872;4.714;2023-02-25T07:44:43;9.98;;;2.70;;
8825;SDS011;4449;50.872;4.714;2023-02-25T07:47:10;10.85;;;3.05;;
8825;SDS011;4449;50.872;4.714;2023-02-25T07:49:38;8.05;;;3.08;;
8825;SDS011;4449;50.872;4.714;2023-02-25T07:52:06;8.30;;;2.60;;
8825;SDS011;4449;50.872;4.714;2023-02-25T07:54:35;9.27;;;3.22;;
8825;SDS011;4449;50.872;4.714;2023-02-25T07:57:03;7.13;;;3.03;;
8825;SDS011;4449;50.872;4.714;2023-02-25T07:59:31;11.55;;;2.92;;
8825;SDS011;4449;50.872;4.714;2023-02-25T08:02:00;8.52;;;2.78;;
8825;SDS011;4449;50.872;4.714;2023-02-25T08:04:28;12.18;;;2.92;;
8825;SDS011;4449;50.872;4.714;2023-02-25T08:06:55;14.55;;;4.35;;
8825;SDS011;4449;50.872;4.714;2023-02-25T08:09:23;10.52;;;3.15;;
8825;SDS011;4449;50.872;4.714;2023-02-25T08:11:52;17.40;;;3.40;;
8825;SDS011;4449;50.872;4.714;2023-02-25T08:14:20;12.35;;;3.40;;
8825;SDS011;4449;50.872;4.714;2023-02-25T08:16:48;11.32;;;3.60;;
8825;SDS011;4449;50.872;4.714;2023-02-25T08:19:17;11.00;;;2.85;;
8825;SDS011;4449;50.872;4.714;2023-02-25T08:21:45;10.82;;;2.90;;
8825;SDS011;4449;50.872;4.714;2023-02-25T08:24:13;12.10;;;3.20;;
8825;SDS011;4449;50.872;4.714;2023-02-25T08:26:41;8.75;;;2.60;;
8825;SDS011;4449;50.872;4.714;2023-02-25T08:29:10;9.60;;;2.85;;
8825;SDS011;4449;50.872;4.714;2023-02-25T08:31:37;12.60;;;3.17;;
8825;SDS011;4449;50.872;4.714;2023-02-25T08:34:05;8.52;;;2.45;;
8825;SDS011;4449;50.872;4.714;2023-02-25T08:36:33;7.72;;;2.50;;
8825;SDS011;4449;50.872;4.714;2023-02-25T08:39:01;9.13;;;3.10;;
8825;SDS011;4449;50.872;4.714;2023-02-25T08:41:29;11.83;;;3.30;;
8825;SDS011;4449;50.872;4.714;2023-02-25T08:43:57;11.95;;;3.13;;
8825;SDS011;4449;50.872;4.714;2023-02-25T08:46:28;8.93;;;2.90;;
8825;SDS011;4449;50.872;4.714;2023-02-25T08:48:56;9.00;;;2.55;;
8825;SDS011;4449;50.872;4.714;2023-02-25T08:51:25;7.55;;;3.08;;
8825;SDS011;4449;50.872;4.714;2023-02-25T08:53:58;11.63;;;2.78;;
8825;SDS011;4449;50.872;4.714;2023-02-25T08:56:26;13.15;;;2.80;;
8825;SDS011;4449;50.872;4.714;2023-02-25T08:58:54;9.85;;;3.08;;
8825;SDS011;4449;50.872;4.714;2023-02-25T09:01:22;10.10;;;2.85;;
8825;SDS011;4449;50.872;4.714;2023-02-25T09:03:51;9.68;;;2.47;;
8825;SDS011;4449;50.872;4.714;2023-02-25T09:06:20;9.02;;;3.40;;
8825;SDS011;4449;50.872;4.714;2023-02-25T09:08:48;10.02;;;2.40;;
8825;SDS011;4449;50.872;4.714;2023-02-25T09:11:16;7.97;;;2.65;;
8825;SDS011;4449;50.872;4.714;2023-02-25T09:13:44;6.90;;;2.40;;
8825;SDS011;4449;50.872;4.714;2023-02-25T09:16:12;11.20;;;3.10;;
8825;SDS011;4449;50.872;4.714;2023-02-25T09:18:41;6.27;;;2.80;;
8825;SDS011;4449;50.872;4.714;2023-02-25T09:21:11;9.00;;;2.60;;
8825;SDS011;4449;50.872;4.714;2023-02-25T09:23:39;8.80;;;2.40;;
8825;SDS011;4449;50.872;4.714;2023-02-25T09:26:08;12.05;;;2.95;;
8825;SDS011;4449;50.872;4.714;2023-02-25T09:28:35;14.02;;;2.78;;
8825;SDS011;4449;50.872;4.714;2023-02-25T09:31:03;10.55;;;2.65;;
8825;SDS011;4449;50.872;4.714;2023-02-25T09:33:31;8.18;;;2.75;;
8825;SDS011;4449;50.872;4.714;2023-02-25T09:36:02;10.37;;;2.43;;
8825;SDS011;4449;50.872;4.714;2023-02-25T09:38:31;11.30;;;3.23;;
8825;SDS011;4449;50.872;4.714;2023-02-25T09:40:59;6.03;;;2.50;;
8825;SDS011;4449;50.872;4.714;2023-02-25T10:41:38;6.57;;;2.33;;
8825;SDS011;4449;50.872;4.714;2023-02-25T10:44:08;7.10;;;2.27;;
8825;SDS011;4449;50.872;4.714;2023-02-25T10:46:37;8.93;;;3.10;;
8825;SDS011;4449;50.872;4.714;2023-02-25T10:49:12;12.30;;;2.37;;
8825;SDS011;4449;50.872;4.714;2023-02-25T10:51:49;7.50;;;2.27;;
8825;SDS011;4449;50.872;4.714;2023-02-25T10:54:22;9.47;;;2.50;;
8825;SDS011;4449;50.872;4.714;2023-02-25T10:56:52;8.37;;;2.23;;
8825;SDS011;4449;50.872;4.714;2023-02-25T10:59:24;10.97;;;2.37;;
8825;SDS011;4449;50.872;4.714;2023-02-25T11:01:53;4.93;;;1.70;;
8825;SDS011;4449;50.872;4.714;2023-02-25T11:04:22;4.50;;;2.03;;
8825;SDS011;4449;50.872;4.714;2023-02-25T11:06:50;9.90;;;2.37;;
8825;SDS011;4449;50.872;4.714;2023-02-25T11:09:28;9.90;;;2.87;;
8825;SDS011;4449;50.872;4.714;2023-02-25T11:11:59;4.17;;;1.60;;
8825;SDS011;4449;50.872;4.714;2023-02-25T11:14:28;8.87;;;2.63;;
8825;SDS011;4449;50.872;4.714;2023-02-25T11:17:00;8.73;;;2.30;;
8825;SDS011;4449;50.872;4.714;2023-02-25T11:19:29;12.13;;;2.40;;
8825;SDS011;4449;50.872;4.714;2023-02-25T11:21:58;4.20;;;2.17;;
8825;SDS011;4449;50.872;4.714;2023-02-25T11:24:33;9.63;;;2.73;;
8825;SDS011;4449;50.872;4.714;2023-02-25T11:27:03;10.67;;;2.20;;
8825;SDS011;4449;50.872;4.714;2023-02-25T11:29:32;11.80;;;3.13;;
8825;SDS011;4449;50.872;4.714;2023-02-25T11:32:06;11.93;;;4.03;;
8825;SDS011;4449;50.872;4.714;2023-02-25T11:34:36;12.07;;;2.60;;
8825;SDS011;4449;50.872;4.714;2023-02-25T11:37:22;13.10;;;3.47;;
8825;SDS011;4449;50.872;4.714;2023-02-25T11:39:51;10.20;;;2.97;;
8825;SDS011;4449;50.872;4.714;2023-02-25T11:42:22;10.07;;;2.50;;
8825;SDS011;4449;50.872;4.714;2023-02-25T11:44:51;11.47;;;2.27;;
8825;SDS011;4449;50.872;4.714;2023-02-25T11:47:25;8.47;;;2.60;;
8825;SDS011;4449;50.872;4.714;2023-02-25T11:52:45;8.07;;;2.70;;
8825;SDS011;4449;50.872;4.714;2023-02-25T11:55:17;9.00;;;3.37;;
8825;SDS011;4449;50.872;4.714;2023-02-25T11:57:50;15.17;;;3.27;;
8825;SDS011;4449;50.872;4.714;2023-02-25T12:00:22;8.80;;;2.30;;
8825;SDS011;4449;50.872;4.714;2023-02-25T12:03:14;12.53;;;2.93;;
8825;SDS011;4449;50.872;4.714;2023-02-25T12:05:52;6.63;;;2.33;;
8825;SDS011;4449;50.872;4.714;2023-02-25T12:14:08;17.17;;;7.17;;
8825;SDS011;4449;50.872;4.714;2023-02-25T12:25:18;7.53;;;2.87;;
8825;SDS011;4449;50.872;4.714;2023-02-25T12:27:54;10.27;;;2.50;;
8825;SDS011;4449;50.872;4.714;2023-02-25T12:30:35;11.80;;;2.70;;
8825;SDS011;4449;50.872;4.714;2023-02-25T12:33:08;5.83;;;2.47;;
8825;SDS011;4449;50.872;4.714;2023-02-25T12:41:18;6.93;;;1.77;;
8825;SDS011;4449;50.872;4.714;2023-02-25T12:43:51;12.07;;;2.20;;
8825;SDS011;4449;50.872;4.714;2023-02-25T12:46:25;9.77;;;2.27;;
8825;SDS011;4449;50.872;4.714;2023-02-25T12:51:44;4.90;;;1.20;;
8825;SDS011;4449;50.872;4.714;2023-02-25T12:54:24;5.30;;;1.70;;
8825;SDS011;4449;50.872;4.714;2023-02-25T12:57:02;3.93;;;1.40;;
8825;SDS011;4449;50.872;4.714;2023-02-25T13:02:28;1.10;;;1.03;;
8825;SDS011;4449;50.872;4.714;2023-02-25T13:10:45;6.77;;;2.33;;
8825;SDS011;4449;50.872;4.714;2023-02-25T13:13:25;5.60;;;1.43;;
8825;SDS011;4449;50.872;4.714;2023-02-25T13:15:59;32.30;;;5.30;;
8825;SDS011;4449;50.872;4.714;2023-02-25T13:18:34;3.07;;;1.10;;
8825;SDS011;4449;50.872;4.714;2023-02-25T13:21:06;6.13;;;1.87;;
8825;SDS011;4449;50.872;4.714;2023-02-25T13:23:44;4.80;;;1.43;;
8825;SDS011;4449;50.872;4.714;2023-02-25T13:26:23;2.47;;;1.23;;
8825;SDS011;4449;50.872;4.714;2023-02-25T13:29:02;2.87;;;1.00;;
8825;SDS011;4449;50.872;4.714;2023-02-25T13:31:39;2.07;;;1.60;;
8825;SDS011;4449;50.872;4.714;2023-02-25T13:34:16;2.90;;;1.47;;
8825;SDS011;4449;50.872;4.714;2023-02-25T13:36:51;3.77;;;1.77;;
8825;SDS011;4449;50.872;4.714;2023-02-25T13:39:33;6.37;;;1.20;;
8825;SDS011;4449;50.872;4.714;2023-02-25T13:42:10;1.83;;;1.23;;
8825;SDS011;4449;50.872;4.714;2023-02-25T13:44:45;4.57;;;1.47;;
8825;SDS011;4449;50.872;4.714;2023-02-25T13:47:22;2.57;;;1.50;;
8825;SDS011;4449;50.872;4.714;2023-02-25T13:50:01;5.07;;;1.50;;
8825;SDS011;4449;50.872;4.714;2023-02-25T13:52:31;1.80;;;1.10;;
8825;SDS011;4449;50.872;4.714;2023-02-25T13:57:50;3.73;;;1.33;;
8825;SDS011;4449;50.872;4.714;2023-02-25T14:05:47;4.27;;;1.30;;
8825;SDS011;4449;50.872;4.714;2023-02-25T14:08:23;3.60;;;0.90;;
8825;SDS011;4449;50.872;4.714;2023-02-25T14:10:58;1.40;;;1.30;;
8825;SDS011;4449;50.872;4.714;2023-02-25T14:13:36;3.77;;;1.80;;
8825;SDS011;4449;50.872;4.714;2023-02-25T14:16:11;2.20;;;0.90;;
8825;SDS011;4449;50.872;4.714;2023-02-25T14:18:44;1.10;;;1.00;;
8825;SDS011;4449;50.872;4.714;2023-02-25T14:21:25;1.27;;;1.07;;
8825;SDS011;4449;50.872;4.714;2023-02-25T14:23:58;3.80;;;1.57;;
8825;SDS011;4449;50.872;4.714;2023-02-25T14:26:31;4.30;;;1.03;;
8825;SDS011;4449;50.872;4.714;2023-02-25T14:29:12;1.73;;;1.27;;
8825;SDS011;4449;50.872;4.714;2023-02-25T14:31:48;3.23;;;1.30;;
8825;SDS011;4449;50.872;4.714;2023-02-25T14:34:31;3.07;;;1.50;;
8825;SDS011;4449;50.872;4.714;2023-02-25T14:37:09;1.40;;;1.30;;
8825;SDS011;4449;50.872;4.714;2023-02-25T14:39:45;3.63;;;1.50;;
8825;SDS011;4449;50.872;4.714;2023-02-25T14:42:19;3.60;;;1.33;;
8825;SDS011;4449;50.872;4.714;2023-02-25T14:44:52;1.03;;;1.03;;
8825;SDS011;4449;50.872;4.714;2023-02-25T14:47:23;2.00;;;1.10;;
8825;SDS011;4449;50.872;4.714;2023-02-25T14:49:53;5.93;;;1.17;;
8825;SDS011;4449;50.872;4.714;2023-02-25T14:55:18;2.33;;;1.20;;
8825;SDS011;4449;50.872;4.714;2023-02-25T14:58:06;3.23;;;1.30;;
8825;SDS011;4449;50.872;4.714;2023-02-25T15:00:41;2.73;;;1.20;;
8825;SDS011;4449;50.872;4.714;2023-02-25T15:06:11;6.23;;;1.33;;
8825;SDS011;4449;50.872;4.714;2023-02-25T15:08:44;5.93;;;1.77;;
8825;SDS011;4449;50.872;4.714;2023-02-25T15:11:36;8.03;;;1.30;;
8825;SDS011;4449;50.872;4.714;2023-02-25T15:17:01;5.33;;;2.07;;
8825;SDS011;4449;50.872;4.714;2023-02-25T15:22:20;3.87;;;1.60;;
8825;SDS011;4449;50.872;4.714;2023-02-25T15:24:49;8.37;;;1.87;;
8825;SDS011;4449;50.872;4.714;2023-02-25T15:27:32;1.97;;;1.40;;
8825;SDS011;4449;50.872;4.714;2023-02-25T15:30:07;6.20;;;1.87;;
8825;SDS011;4449;50.872;4.714;2023-02-25T15:32:44;3.57;;;1.07;;
8825;SDS011;4449;50.872;4.714;2023-02-25T15:35:19;6.57;;;2.03;;
8825;SDS011;4449;50.872;4.714;2023-02-25T15:38:02;5.57;;;1.60;;
8825;SDS011;4449;50.872;4.714;2023-02-25T15:40:43;4.93;;;2.27;;
8825;SDS011;4449;50.872;4.714;2023-02-25T15:43:38;5.67;;;1.87;;
8825;SDS011;4449;50.872;4.714;2023-02-25T15:49:19;5.37;;;1.80;;
8825;SDS011;4449;50.872;4.714;2023-02-25T15:51:48;4.97;;;1.80;;
8825;SDS011;4449;50.872;4.714;2023-02-25T15:57:03;5.77;;;1.77;;
8825;SDS011;4449;50.872;4.714;2023-02-25T15:59:52;3.33;;;1.70;;
8825;SDS011;4449;50.872;4.714;2023-02-25T16:02:40;5.60;;;1.77;;
8825;SDS011;4449;50.872;4.714;2023-02-25T16:05:15;4.27;;;2.13;;
8825;SDS011;4449;50.872;4.714;2023-02-25T16:07:44;2.63;;;1.60;;
8825;SDS011;4449;50.872;4.714;2023-02-25T16:10:18;4.57;;;2.00;;
8825;SDS011;4449;50.872;4.714;2023-02-25T16:12:47;4.17;;;1.80;;
8825;SDS011;4449;50.872;4.714;2023-02-25T16:15:19;4.60;;;2.03;;
8825;SDS011;4449;50.872;4.714;2023-02-25T16:17:47;7.70;;;1.80;;
8825;SDS011;4449;50.872;4.714;2023-02-25T16:20:16;5.67;;;1.90;;
8825;SDS011;4449;50.872;4.714;2023-02-25T16:22:45;4.73;;;1.80;;
8825;SDS011;4449;50.872;4.714;2023-02-25T16:25:14;5.60;;;1.57;;
8825;SDS011;4449;50.872;4.714;2023-02-25T16:27:46;7.43;;;1.37;;
8825;SDS011;4449;50.872;4.714;2023-02-25T16:30:21;2.80;;;1.50;;
8825;SDS011;4449;50.872;4.714;2023-02-25T16:32:51;3.63;;;1.37;;
8825;SDS011;4449;50.872;4.714;2023-02-25T16:35:22;3.90;;;1.87;;
8825;SDS011;4449;50.872;4.714;2023-02-25T16:37:54;3.27;;;1.43;;
8825;SDS011;4449;50.872;4.714;2023-02-25T16:40:26;5.87;;;1.83;;
8825;SDS011;4449;50.872;4.714;2023-02-25T16:42:55;7.77;;;1.93;;
8825;SDS011;4449;50.872;4.714;2023-02-25T16:45:26;8.60;;;2.27;;
8825;SDS011;4449;50.872;4.714;2023-02-25T16:47:56;4.20;;;1.60;;
8825;SDS011;4449;50.872;4.714;2023-02-25T16:50:25;3.53;;;1.67;;
8825;SDS011;4449;50.872;4.714;2023-02-25T16:52:54;5.33;;;1.83;;
8825;SDS011;4449;50.872;4.714;2023-02-25T16:55:22;1.93;;;1.63;;
8825;SDS011;4449;50.872;4.714;2023-02-25T16:58:00;3.00;;;1.37;;
8825;SDS011;4449;50.872;4.714;2023-02-25T17:00:30;1.90;;;1.60;;
8825;SDS011;4449;50.872;4.714;2023-02-25T17:02:58;1.67;;;1.40;;
8825;SDS011;4449;50.872;4.714;2023-02-25T17:05:27;3.90;;;1.73;;
8825;SDS011;4449;50.872;4.714;2023-02-25T17:07:55;3.23;;;1.43;;
8825;SDS011;4449;50.872;4.714;2023-02-25T17:10:26;3.13;;;1.50;;
8825;SDS011;4449;50.872;4.714;2023-02-25T17:12:55;3.93;;;1.77;;
8825;SDS011;4449;50.872;4.714;2023-02-25T17:15:23;2.93;;;1.53;;
8825;SDS011;4449;50.872;4.714;2023-02-25T17:17:59;3.50;;;1.90;;
8825;SDS011;4449;50.872;4.714;2023-02-25T17:20:27;9.07;;;1.67;;
8825;SDS011;4449;50.872;4.714;2023-02-25T17:22:55;3.07;;;1.70;;
8825;SDS011;4449;50.872;4.714;2023-02-25T17:25:25;3.13;;;1.60;;
8825;SDS011;4449;50.872;4.714;2023-02-25T17:27:55;5.63;;;1.73;;
8825;SDS011;4449;50.872;4.714;2023-02-25T17:30:33;2.70;;;1.80;;
8825;SDS011;4449;50.872;4.714;2023-02-25T17:33:03;8.80;;;2.00;;
8825;SDS011;4449;50.872;4.714;2023-02-25T17:35:31;5.37;;;2.03;;